sensor_id;sensor_type;location;lat;lon;timestamp;P1;durP1;ratioP1;P2;durP2;ratioP2
40995;SDS011;26723;57.478;12.066;2023-02-28T00:00:21;4.27;;;2.93;;
40995;SDS011;26723;57.478;12.066;2023-02-28T00:03:30;3.20;;;2.90;;
40995;SDS011;26723;57.478;12.066;2023-02-28T00:06:44;5.00;;;3.30;;
40995;SDS011;26723;57.478;12.066;2023-02-28T00:09:52;4.03;;;3.50;;
40995;SDS011;26723;57.478;12.066;2023-02-28T00:13:02;3.40;;;3.10;;
40995;SDS011;26723;57.478;12.066;2023-02-28T00:16:12;3.67;;;3.00;;
40995;SDS011;26723;57.478;12.066;2023-02-28T00:19:22;6.00;;;3.20;;
40995;SDS011;26723;57.478;12.066;2023-02-28T00:22:32;3.40;;;3.10;;
40995;SDS011;26723;57.478;12.066;2023-02-28T00:25:41;4.80;;;2.80;;
40995;SDS011;26723;57.478;12.066;2023-02-28T00:28:51;3.47;;;3.17;;
40995;SDS011;26723;57.478;12.066;2023-02-28T00:32:01;3.57;;;2.80;;
40995;SDS011;26723;57.478;12.066;2023-02-28T00:35:10;5.50;;;2.97;;
40995;SDS011;26723;57.478;12.066;2023-02-28T00:38:21;3.70;;;2.70;;
40995;SDS011;26723;57.478;12.066;2023-02-28T00:41:30;4.03;;;2.83;;
40995;SDS011;26723;57.478;12.066;2023-02-28T00:44:38;3.30;;;3.00;;
40995;SDS011;26723;57.478;12.066;2023-02-28T00:47:47;3.37;;;3.10;;
40995;SDS011;26723;57.478;12.066;2023-02-28T00:50:57;3.17;;;2.93;;
40995;SDS011;26723;57.478;12.066;2023-02-28T00:54:07;6.53;;;3.20;;
40995;SDS011;26723;57.478;12.066;2023-02-28T00:57:15;3.07;;;2.80;;
40995;SDS011;26723;57.478;12.066;2023-02-28T01:00:24;3.10;;;2.83;;
40995;SDS011;26723;57.478;12.066;2023-02-28T01:03:32;3.00;;;2.80;;
40995;SDS011;26723;57.478;12.066;2023-02-28T01:06:41;4.23;;;3.17;;
40995;SDS011;26723;57.478;12.066;2023-02-28T01:09:51;3.50;;;3.23;;
40995;SDS011;26723;57.478;12.066;2023-02-28T01:12:59;4.60;;;3.07;;
40995;SDS011;26723;57.478;12.066;2023-02-28T01:16:08;2.80;;;2.60;;
40995;SDS011;26723;57.478;12.066;2023-02-28T01:19:16;3.10;;;2.80;;
40995;SDS011;26723;57.478;12.066;2023-02-28T01:22:25;3.07;;;2.87;;
40995;SDS011;26723;57.478;12.066;2023-02-28T01:25:36;2.87;;;2.63;;
40995;SDS011;26723;57.478;12.066;2023-02-28T01:28:44;3.53;;;3.10;;
40995;SDS011;26723;57.478;12.066;2023-02-28T01:31:53;3.03;;;2.70;;
40995;SDS011;26723;57.478;12.066;2023-02-28T01:35:01;3.13;;;2.83;;
40995;SDS011;26723;57.478;12.066;2023-02-28T01:38:10;3.53;;;3.10;;
40995;SDS011;26723;57.478;12.066;2023-02-28T01:41:30;3.50;;;2.90;;
40995;SDS011;26723;57.478;12.066;2023-02-28T01:48:09;7.10;;;3.33;;
40995;SDS011;26723;57.478;12.066;2023-02-28T01:51:20;4.67;;;3.10;;
40995;SDS011;26723;57.478;12.066;2023-02-28T01:54:34;6.30;;;3.10;;
40995;SDS011;26723;57.478;12.066;2023-02-28T01:57:45;3.00;;;2.70;;
40995;SDS011;26723;57.478;12.066;2023-02-28T02:00:57;3.03;;;2.50;;
40995;SDS011;26723;57.478;12.066;2023-02-28T02:04:06;3.30;;;3.00;;
40995;SDS011;26723;57.478;12.066;2023-02-28T02:07:14;5.73;;;2.97;;
40995;SDS011;26723;57.478;12.066;2023-02-28T02:10:25;3.13;;;2.83;;
40995;SDS011;26723;57.478;12.066;2023-02-28T02:13:45;3.10;;;2.77;;
40995;SDS011;26723;57.478;12.066;2023-02-28T02:17:20;3.30;;;3.00;;
40995;SDS011;26723;57.478;12.066;2023-02-28T02:20:46;3.17;;;2.87;;
40995;SDS011;26723;57.478;12.066;2023-02-28T02:27:59;3.13;;;2.90;;
40995;SDS011;26723;57.478;12.066;2023-02-28T02:31:46;7.37;;;3.00;;
40995;SDS011;26723;57.478;12.066;2023-02-28T02:35:08;2.87;;;2.67;;
40995;SDS011;26723;57.478;12.066;2023-02-28T02:38:24;2.60;;;2.40;;
40995;SDS011;26723;57.478;12.066;2023-02-28T02:41:39;2.77;;;2.57;;
40995;SDS011;26723;57.478;12.066;2023-02-28T02:44:55;4.57;;;3.30;;
40995;SDS011;26723;57.478;12.066;2023-02-28T02:48:08;2.63;;;2.43;;
40995;SDS011;26723;57.478;12.066;2023-02-28T02:51:23;2.80;;;2.60;;
40995;SDS011;26723;57.478;12.066;2023-02-28T02:54:33;3.07;;;2.60;;
40995;SDS011;26723;57.478;12.066;2023-02-28T02:57:45;5.27;;;3.17;;
40995;SDS011;26723;57.478;12.066;2023-02-28T03:00:57;5.13;;;2.40;;
40995;SDS011;26723;57.478;12.066;2023-02-28T03:04:12;3.47;;;2.87;;
40995;SDS011;26723;57.478;12.066;2023-02-28T03:07:27;2.80;;;2.60;;
40995;SDS011;26723;57.478;12.066;2023-02-28T03:10:36;2.87;;;2.53;;
40995;SDS011;26723;57.478;12.066;2023-02-28T03:14:03;6.07;;;2.87;;
40995;SDS011;26723;57.478;12.066;2023-02-28T03:17:29;3.30;;;2.40;;
40995;SDS011;26723;57.478;12.066;2023-02-28T03:20:46;2.80;;;2.50;;
40995;SDS011;26723;57.478;12.066;2023-02-28T03:24:02;3.00;;;2.80;;
40995;SDS011;26723;57.478;12.066;2023-02-28T03:27:15;3.33;;;2.60;;
40995;SDS011;26723;57.478;12.066;2023-02-28T03:30:27;2.73;;;2.53;;
40995;SDS011;26723;57.478;12.066;2023-02-28T03:33:42;2.60;;;2.40;;
40995;SDS011;26723;57.478;12.066;2023-02-28T03:37:03;2.97;;;2.77;;
40995;SDS011;26723;57.478;12.066;2023-02-28T03:40:17;3.43;;;2.70;;
40995;SDS011;26723;57.478;12.066;2023-02-28T03:43:29;2.67;;;2.40;;
40995;SDS011;26723;57.478;12.066;2023-02-28T03:46:44;2.97;;;2.60;;
40995;SDS011;26723;57.478;12.066;2023-02-28T03:49:59;3.10;;;2.50;;
40995;SDS011;26723;57.478;12.066;2023-02-28T03:53:11;3.23;;;2.70;;
40995;SDS011;26723;57.478;12.066;2023-02-28T03:56:27;4.00;;;2.90;;
40995;SDS011;26723;57.478;12.066;2023-02-28T03:59:42;2.60;;;2.40;;
40995;SDS011;26723;57.478;12.066;2023-02-28T04:02:52;2.60;;;2.40;;
40995;SDS011;26723;57.478;12.066;2023-02-28T04:06:01;3.70;;;2.60;;
40995;SDS011;26723;57.478;12.066;2023-02-28T04:09:11;3.30;;;2.57;;
40995;SDS011;26723;57.478;12.066;2023-02-28T04:12:22;3.33;;;2.70;;
40995;SDS011;26723;57.478;12.066;2023-02-28T04:15:31;3.00;;;2.80;;
40995;SDS011;26723;57.478;12.066;2023-02-28T04:18:39;2.90;;;2.70;;
40995;SDS011;26723;57.478;12.066;2023-02-28T04:21:50;2.20;;;2.10;;
40995;SDS011;26723;57.478;12.066;2023-02-28T04:25:00;3.30;;;2.40;;
40995;SDS011;26723;57.478;12.066;2023-02-28T04:28:10;3.97;;;2.60;;
40995;SDS011;26723;57.478;12.066;2023-02-28T04:31:18;4.30;;;2.83;;
40995;SDS011;26723;57.478;12.066;2023-02-28T04:34:27;2.47;;;2.27;;
40995;SDS011;26723;57.478;12.066;2023-02-28T04:37:37;3.13;;;2.60;;
40995;SDS011;26723;57.478;12.066;2023-02-28T04:40:45;2.60;;;2.40;;
40995;SDS011;26723;57.478;12.066;2023-02-28T04:43:55;2.90;;;2.43;;
40995;SDS011;26723;57.478;12.066;2023-02-28T04:47:04;4.30;;;2.30;;
40995;SDS011;26723;57.478;12.066;2023-02-28T04:50:12;2.70;;;2.50;;
40995;SDS011;26723;57.478;12.066;2023-02-28T04:53:21;3.73;;;2.70;;
40995;SDS011;26723;57.478;12.066;2023-02-28T04:56:29;3.10;;;2.50;;
40995;SDS011;26723;57.478;12.066;2023-02-28T04:59:39;2.60;;;2.40;;
40995;SDS011;26723;57.478;12.066;2023-02-28T05:02:47;4.20;;;2.57;;
40995;SDS011;26723;57.478;12.066;2023-02-28T05:05:56;2.40;;;2.20;;
40995;SDS011;26723;57.478;12.066;2023-02-28T05:09:04;2.60;;;2.30;;
40995;SDS011;26723;57.478;12.066;2023-02-28T05:12:12;5.60;;;2.57;;
40995;SDS011;26723;57.478;12.066;2023-02-28T05:15:22;4.00;;;2.37;;
40995;SDS011;26723;57.478;12.066;2023-02-28T05:18:31;5.10;;;2.27;;
40995;SDS011;26723;57.478;12.066;2023-02-28T05:21:40;2.70;;;2.40;;
40995;SDS011;26723;57.478;12.066;2023-02-28T05:24:55;3.80;;;2.70;;
40995;SDS011;26723;57.478;12.066;2023-02-28T05:28:04;2.80;;;2.60;;
40995;SDS011;26723;57.478;12.066;2023-02-28T05:31:13;2.70;;;2.30;;
40995;SDS011;26723;57.478;12.066;2023-02-28T05:34:22;2.77;;;2.57;;
40995;SDS011;26723;57.478;12.066;2023-02-28T05:37:30;4.20;;;2.73;;
40995;SDS011;26723;57.478;12.066;2023-02-28T05:40:39;2.80;;;2.40;;
40995;SDS011;26723;57.478;12.066;2023-02-28T05:43:47;7.40;;;2.77;;
40995;SDS011;26723;57.478;12.066;2023-02-28T05:46:57;4.50;;;2.63;;
40995;SDS011;26723;57.478;12.066;2023-02-28T05:50:06;4.10;;;2.13;;
40995;SDS011;26723;57.478;12.066;2023-02-28T05:53:17;3.90;;;2.30;;
40995;SDS011;26723;57.478;12.066;2023-02-28T05:56:25;3.73;;;2.97;;
40995;SDS011;26723;57.478;12.066;2023-02-28T05:59:33;2.57;;;2.37;;
40995;SDS011;26723;57.478;12.066;2023-02-28T06:02:47;2.73;;;2.53;;
40995;SDS011;26723;57.478;12.066;2023-02-28T06:05:56;4.97;;;2.60;;
40995;SDS011;26723;57.478;12.066;2023-02-28T06:09:04;3.37;;;2.50;;
40995;SDS011;26723;57.478;12.066;2023-02-28T06:12:13;3.10;;;2.50;;
40995;SDS011;26723;57.478;12.066;2023-02-28T06:15:21;2.50;;;2.30;;
40995;SDS011;26723;57.478;12.066;2023-02-28T06:18:31;4.10;;;2.27;;
40995;SDS011;26723;57.478;12.066;2023-02-28T06:21:40;2.97;;;2.23;;
40995;SDS011;26723;57.478;12.066;2023-02-28T06:24:48;3.97;;;2.53;;
40995;SDS011;26723;57.478;12.066;2023-02-28T06:27:57;5.90;;;2.90;;
40995;SDS011;26723;57.478;12.066;2023-02-28T06:31:06;3.47;;;2.53;;
40995;SDS011;26723;57.478;12.066;2023-02-28T06:34:17;2.70;;;2.50;;
40995;SDS011;26723;57.478;12.066;2023-02-28T06:37:25;2.63;;;2.43;;
40995;SDS011;26723;57.478;12.066;2023-02-28T06:40:33;8.40;;;3.07;;
40995;SDS011;26723;57.478;12.066;2023-02-28T06:43:42;3.40;;;2.60;;
40995;SDS011;26723;57.478;12.066;2023-02-28T06:46:51;3.53;;;3.23;;
40995;SDS011;26723;57.478;12.066;2023-02-28T06:50:01;4.43;;;2.40;;
40995;SDS011;26723;57.478;12.066;2023-02-28T06:53:09;4.67;;;3.00;;
40995;SDS011;26723;57.478;12.066;2023-02-28T06:56:18;5.90;;;3.17;;
40995;SDS011;26723;57.478;12.066;2023-02-28T06:59:27;3.33;;;2.70;;
40995;SDS011;26723;57.478;12.066;2023-02-28T07:02:36;3.53;;;3.10;;
40995;SDS011;26723;57.478;12.066;2023-02-28T07:05:46;3.80;;;2.83;;
40995;SDS011;26723;57.478;12.066;2023-02-28T07:08:54;4.47;;;3.10;;
40995;SDS011;26723;57.478;12.066;2023-02-28T07:12:03;2.80;;;2.60;;
40995;SDS011;26723;57.478;12.066;2023-02-28T07:15:12;8.00;;;3.00;;
40995;SDS011;26723;57.478;12.066;2023-02-28T07:18:21;4.07;;;2.90;;
40995;SDS011;26723;57.478;12.066;2023-02-28T07:21:31;4.55;;;3.17;;
40995;SDS011;26723;57.478;12.066;2023-02-28T07:24:39;5.50;;;2.97;;
40995;SDS011;26723;57.478;12.066;2023-02-28T07:27:48;5.32;;;3.03;;
40995;SDS011;26723;57.478;12.066;2023-02-28T07:30:56;3.40;;;2.72;;
40995;SDS011;26723;57.478;12.066;2023-02-28T07:34:05;3.95;;;3.00;;
40995;SDS011;26723;57.478;12.066;2023-02-28T07:37:14;4.88;;;3.17;;
40995;SDS011;26723;57.478;12.066;2023-02-28T07:40:23;4.60;;;3.08;;
40995;SDS011;26723;57.478;12.066;2023-02-28T07:43:32;3.47;;;2.63;;
40995;SDS011;26723;57.478;12.066;2023-02-28T07:46:40;4.22;;;2.70;;
40995;SDS011;26723;57.478;12.066;2023-02-28T07:49:48;3.50;;;3.00;;
40995;SDS011;26723;57.478;12.066;2023-02-28T07:52:58;3.88;;;2.78;;
40995;SDS011;26723;57.478;12.066;2023-02-28T07:56:07;2.90;;;2.70;;
40995;SDS011;26723;57.478;12.066;2023-02-28T07:59:17;3.17;;;2.60;;
40995;SDS011;26723;57.478;12.066;2023-02-28T08:02:25;2.83;;;2.45;;
40995;SDS011;26723;57.478;12.066;2023-02-28T08:05:37;2.78;;;2.58;;
40995;SDS011;26723;57.478;12.066;2023-02-28T08:08:48;2.97;;;2.67;;
40995;SDS011;26723;57.478;12.066;2023-02-28T08:11:56;2.40;;;2.30;;
40995;SDS011;26723;57.478;12.066;2023-02-28T08:15:05;2.58;;;2.38;;
40995;SDS011;26723;57.478;12.066;2023-02-28T08:18:14;2.67;;;2.47;;
40995;SDS011;26723;57.478;12.066;2023-02-28T08:21:23;3.05;;;2.85;;
40995;SDS011;26723;57.478;12.066;2023-02-28T08:24:33;3.05;;;2.80;;
40995;SDS011;26723;57.478;12.066;2023-02-28T08:27:41;2.75;;;2.60;;
40995;SDS011;26723;57.478;12.066;2023-02-28T08:30:50;2.13;;;2.00;;
40995;SDS011;26723;57.478;12.066;2023-02-28T08:33:58;1.80;;;1.70;;
40995;SDS011;26723;57.478;12.066;2023-02-28T08:37:07;2.20;;;2.10;;
40995;SDS011;26723;57.478;12.066;2023-02-28T08:40:17;2.63;;;2.42;;
40995;SDS011;26723;57.478;12.066;2023-02-28T08:43:25;2.83;;;2.63;;
40995;SDS011;26723;57.478;12.066;2023-02-28T08:46:35;3.13;;;2.83;;
40995;SDS011;26723;57.478;12.066;2023-02-28T08:49:43;3.07;;;2.40;;
40995;SDS011;26723;57.478;12.066;2023-02-28T08:52:51;2.60;;;2.40;;
40995;SDS011;26723;57.478;12.066;2023-02-28T08:56:02;3.27;;;1.93;;
40995;SDS011;26723;57.478;12.066;2023-02-28T08:59:12;2.30;;;2.10;;
40995;SDS011;26723;57.478;12.066;2023-02-28T09:02:20;4.23;;;2.07;;
40995;SDS011;26723;57.478;12.066;2023-02-28T09:05:29;2.97;;;2.67;;
40995;SDS011;26723;57.478;12.066;2023-02-28T09:08:37;3.57;;;3.20;;
40995;SDS011;26723;57.478;12.066;2023-02-28T09:11:48;3.47;;;2.90;;
40995;SDS011;26723;57.478;12.066;2023-02-28T09:14:57;3.43;;;3.13;;
40995;SDS011;26723;57.478;12.066;2023-02-28T09:18:05;4.93;;;3.67;;
40995;SDS011;26723;57.478;12.066;2023-02-28T09:21:14;3.90;;;3.30;;
40995;SDS011;26723;57.478;12.066;2023-02-28T09:24:24;4.27;;;3.37;;
40995;SDS011;26723;57.478;12.066;2023-02-28T09:27:34;4.47;;;3.33;;
40995;SDS011;26723;57.478;12.066;2023-02-28T09:30:44;7.20;;;3.97;;
40995;SDS011;26723;57.478;12.066;2023-02-28T09:33:55;6.03;;;3.73;;
40995;SDS011;26723;57.478;12.066;2023-02-28T09:37:05;7.90;;;3.90;;
40995;SDS011;26723;57.478;12.066;2023-02-28T09:40:13;5.70;;;3.77;;
40995;SDS011;26723;57.478;12.066;2023-02-28T09:43:26;6.27;;;3.37;;
40995;SDS011;26723;57.478;12.066;2023-02-28T09:46:38;4.70;;;3.27;;
40995;SDS011;26723;57.478;12.066;2023-02-28T09:49:49;4.00;;;2.93;;
40995;SDS011;26723;57.478;12.066;2023-02-28T09:52:58;3.63;;;3.07;;
40995;SDS011;26723;57.478;12.066;2023-02-28T09:56:10;3.37;;;2.77;;
40995;SDS011;26723;57.478;12.066;2023-02-28T09:59:31;3.63;;;3.20;;
40995;SDS011;26723;57.478;12.066;2023-02-28T10:02:52;5.83;;;3.00;;
40995;SDS011;26723;57.478;12.066;2023-02-28T10:06:12;3.57;;;3.27;;
40995;SDS011;26723;57.478;12.066;2023-02-28T10:09:24;3.50;;;3.13;;
40995;SDS011;26723;57.478;12.066;2023-02-28T10:12:37;5.20;;;3.37;;
40995;SDS011;26723;57.478;12.066;2023-02-28T10:15:53;3.73;;;3.40;;
40995;SDS011;26723;57.478;12.066;2023-02-28T10:19:06;4.40;;;3.47;;
40995;SDS011;26723;57.478;12.066;2023-02-28T10:22:20;4.30;;;3.63;;
40995;SDS011;26723;57.478;12.066;2023-02-28T10:25:34;4.60;;;4.00;;
40995;SDS011;26723;57.478;12.066;2023-02-28T10:28:44;4.97;;;3.80;;
40995;SDS011;26723;57.478;12.066;2023-02-28T10:31:54;3.97;;;3.57;;
40995;SDS011;26723;57.478;12.066;2023-02-28T10:35:14;4.67;;;3.50;;
40995;SDS011;26723;57.478;12.066;2023-02-28T10:38:25;3.90;;;3.47;;
40995;SDS011;26723;57.478;12.066;2023-02-28T10:41:35;4.47;;;3.30;;
40995;SDS011;26723;57.478;12.066;2023-02-28T10:45:02;6.33;;;3.40;;
40995;SDS011;26723;57.478;12.066;2023-02-28T10:48:27;4.93;;;3.93;;
40995;SDS011;26723;57.478;12.066;2023-02-28T10:51:40;4.60;;;3.60;;
40995;SDS011;26723;57.478;12.066;2023-02-28T10:54:49;3.73;;;3.10;;
40995;SDS011;26723;57.478;12.066;2023-02-28T10:57:59;3.90;;;3.50;;
40995;SDS011;26723;57.478;12.066;2023-02-28T11:01:11;3.83;;;3.43;;
40995;SDS011;26723;57.478;12.066;2023-02-28T11:04:33;4.80;;;3.57;;
40995;SDS011;26723;57.478;12.066;2023-02-28T11:07:50;4.47;;;3.57;;
40995;SDS011;26723;57.478;12.066;2023-02-28T11:11:03;4.47;;;3.43;;
40995;SDS011;26723;57.478;12.066;2023-02-28T11:14:16;4.73;;;3.70;;
40995;SDS011;26723;57.478;12.066;2023-02-28T11:17:28;4.63;;;3.93;;
40995;SDS011;26723;57.478;12.066;2023-02-28T11:20:40;5.20;;;4.10;;
40995;SDS011;26723;57.478;12.066;2023-02-28T11:23:49;4.00;;;3.60;;
40995;SDS011;26723;57.478;12.066;2023-02-28T11:27:00;4.70;;;3.60;;
40995;SDS011;26723;57.478;12.066;2023-02-28T11:30:22;3.83;;;3.53;;
40995;SDS011;26723;57.478;12.066;2023-02-28T11:33:41;4.10;;;3.50;;
40995;SDS011;26723;57.478;12.066;2023-02-28T11:36:53;4.37;;;3.27;;
40995;SDS011;26723;57.478;12.066;2023-02-28T11:40:05;4.17;;;3.60;;
40995;SDS011;26723;57.478;12.066;2023-02-28T11:43:23;5.40;;;3.63;;
40995;SDS011;26723;57.478;12.066;2023-02-28T11:46:39;3.93;;;3.63;;
40995;SDS011;26723;57.478;12.066;2023-02-28T11:49:56;5.90;;;4.37;;
40995;SDS011;26723;57.478;12.066;2023-02-28T11:53:21;4.17;;;3.67;;
40995;SDS011;26723;57.478;12.066;2023-02-28T11:56:37;4.10;;;3.33;;
40995;SDS011;26723;57.478;12.066;2023-02-28T11:59:51;4.13;;;3.20;;
40995;SDS011;26723;57.478;12.066;2023-02-28T12:03:22;3.90;;;3.50;;
40995;SDS011;26723;57.478;12.066;2023-02-28T12:06:40;3.83;;;3.30;;
40995;SDS011;26723;57.478;12.066;2023-02-28T12:10:00;3.00;;;2.80;;
40995;SDS011;26723;57.478;12.066;2023-02-28T12:13:19;3.80;;;3.13;;
40995;SDS011;26723;57.478;12.066;2023-02-28T12:16:45;3.80;;;3.40;;
40995;SDS011;26723;57.478;12.066;2023-02-28T12:20:02;4.50;;;3.30;;
40995;SDS011;26723;57.478;12.066;2023-02-28T12:23:37;3.20;;;2.70;;
40995;SDS011;26723;57.478;12.066;2023-02-28T12:27:05;3.30;;;3.00;;
40995;SDS011;26723;57.478;12.066;2023-02-28T12:30:19;3.10;;;2.80;;
40995;SDS011;26723;57.478;12.066;2023-02-28T12:33:32;3.90;;;3.30;;
40995;SDS011;26723;57.478;12.066;2023-02-28T12:36:45;3.80;;;3.50;;
40995;SDS011;26723;57.478;12.066;2023-02-28T12:39:56;5.30;;;3.70;;
40995;SDS011;26723;57.478;12.066;2023-02-28T12:43:13;5.57;;;3.40;;
40995;SDS011;26723;57.478;12.066;2023-02-28T12:46:28;3.40;;;3.10;;
40995;SDS011;26723;57.478;12.066;2023-02-28T12:49:41;2.93;;;2.63;;
40995;SDS011;26723;57.478;12.066;2023-02-28T12:52:54;3.57;;;3.00;;
40995;SDS011;26723;57.478;12.066;2023-02-28T12:56:09;2.70;;;2.50;;
40995;SDS011;26723;57.478;12.066;2023-02-28T12:59:27;3.03;;;2.30;;
40995;SDS011;26723;57.478;12.066;2023-02-28T13:02:50;4.60;;;2.90;;
40995;SDS011;26723;57.478;12.066;2023-02-28T13:06:27;3.13;;;2.30;;
40995;SDS011;26723;57.478;12.066;2023-02-28T13:09:52;1.90;;;1.80;;
40995;SDS011;26723;57.478;12.066;2023-02-28T13:13:02;3.90;;;2.53;;
40995;SDS011;26723;57.478;12.066;2023-02-28T13:16:12;1.70;;;1.60;;
40995;SDS011;26723;57.478;12.066;2023-02-28T13:19:21;4.60;;;1.80;;
40995;SDS011;26723;57.478;12.066;2023-02-28T13:22:37;1.07;;;1.03;;
40995;SDS011;26723;57.478;12.066;2023-02-28T13:25:52;1.53;;;1.43;;
40995;SDS011;26723;57.478;12.066;2023-02-28T13:29:02;2.27;;;1.60;;
40995;SDS011;26723;57.478;12.066;2023-02-28T13:32:32;2.57;;;1.70;;
40995;SDS011;26723;57.478;12.066;2023-02-28T13:35:43;2.13;;;1.93;;
40995;SDS011;26723;57.478;12.066;2023-02-28T13:38:52;2.00;;;1.80;;
40995;SDS011;26723;57.478;12.066;2023-02-28T13:45:54;2.17;;;1.60;;
40995;SDS011;26723;57.478;12.066;2023-02-28T13:49:19;1.07;;;1.07;;
40995;SDS011;26723;57.478;12.066;2023-02-28T13:52:32;1.67;;;0.97;;
40995;SDS011;26723;57.478;12.066;2023-02-28T13:55:57;1.57;;;1.10;;
40995;SDS011;26723;57.478;12.066;2023-02-28T13:59:16;0.97;;;0.97;;
40995;SDS011;26723;57.478;12.066;2023-02-28T14:02:40;2.40;;;1.00;;
40995;SDS011;26723;57.478;12.066;2023-02-28T14:06:14;1.90;;;0.97;;
40995;SDS011;26723;57.478;12.066;2023-02-28T14:09:31;1.03;;;1.03;;
40995;SDS011;26723;57.478;12.066;2023-02-28T14:12:58;1.10;;;1.10;;
40995;SDS011;26723;57.478;12.066;2023-02-28T14:16:08;1.47;;;1.20;;
40995;SDS011;26723;57.478;12.066;2023-02-28T14:19:19;1.43;;;1.07;;
40995;SDS011;26723;57.478;12.066;2023-02-28T14:22:43;0.90;;;0.90;;
40995;SDS011;26723;57.478;12.066;2023-02-28T14:26:01;1.10;;;1.00;;
40995;SDS011;26723;57.478;12.066;2023-02-28T14:29:19;0.80;;;0.80;;
40995;SDS011;26723;57.478;12.066;2023-02-28T14:32:58;0.90;;;0.90;;
40995;SDS011;26723;57.478;12.066;2023-02-28T14:36:17;0.70;;;0.70;;
40995;SDS011;26723;57.478;12.066;2023-02-28T14:39:30;1.00;;;1.00;;
40995;SDS011;26723;57.478;12.066;2023-02-28T14:42:39;1.10;;;1.10;;
40995;SDS011;26723;57.478;12.066;2023-02-28T14:45:54;1.20;;;1.20;;
40995;SDS011;26723;57.478;12.066;2023-02-28T14:49:04;0.90;;;0.90;;
40995;SDS011;26723;57.478;12.066;2023-02-28T14:52:15;1.40;;;1.10;;
40995;SDS011;26723;57.478;12.066;2023-02-28T14:55:28;1.07;;;1.07;;
40995;SDS011;26723;57.478;12.066;2023-02-28T14:58:38;1.20;;;1.10;;
40995;SDS011;26723;57.478;12.066;2023-02-28T15:01:47;1.20;;;1.20;;
40995;SDS011;26723;57.478;12.066;2023-02-28T15:04:56;1.20;;;1.20;;
40995;SDS011;26723;57.478;12.066;2023-02-28T15:08:10;1.07;;;1.07;;
40995;SDS011;26723;57.478;12.066;2023-02-28T15:11:22;1.37;;;1.27;;
40995;SDS011;26723;57.478;12.066;2023-02-28T15:14:30;1.23;;;1.20;;
40995;SDS011;26723;57.478;12.066;2023-02-28T15:17:39;1.50;;;1.40;;
40995;SDS011;26723;57.478;12.066;2023-02-28T15:20:50;1.80;;;1.70;;
40995;SDS011;26723;57.478;12.066;2023-02-28T15:23:59;1.40;;;1.30;;
40995;SDS011;26723;57.478;12.066;2023-02-28T15:27:13;1.53;;;1.43;;
40995;SDS011;26723;57.478;12.066;2023-02-28T15:30:28;1.60;;;1.50;;
40995;SDS011;26723;57.478;12.066;2023-02-28T15:33:39;1.60;;;1.50;;
40995;SDS011;26723;57.478;12.066;2023-02-28T15:37:01;1.50;;;1.40;;
40995;SDS011;26723;57.478;12.066;2023-02-28T15:40:16;1.47;;;1.37;;
40995;SDS011;26723;57.478;12.066;2023-02-28T15:43:27;1.70;;;1.60;;
40995;SDS011;26723;57.478;12.066;2023-02-28T15:46:36;2.00;;;1.80;;
40995;SDS011;26723;57.478;12.066;2023-02-28T15:49:45;1.90;;;1.80;;
40995;SDS011;26723;57.478;12.066;2023-02-28T15:52:55;2.37;;;1.87;;
40995;SDS011;26723;57.478;12.066;2023-02-28T15:56:04;4.23;;;1.80;;
40995;SDS011;26723;57.478;12.066;2023-02-28T15:59:18;1.97;;;1.73;;
40995;SDS011;26723;57.478;12.066;2023-02-28T16:02:31;2.53;;;1.70;;
40995;SDS011;26723;57.478;12.066;2023-02-28T16:05:41;1.60;;;1.50;;
40995;SDS011;26723;57.478;12.066;2023-02-28T16:08:49;2.07;;;1.50;;
40995;SDS011;26723;57.478;12.066;2023-02-28T16:12:00;1.67;;;1.57;;
40995;SDS011;26723;57.478;12.066;2023-02-28T16:15:16;2.00;;;1.67;;
40995;SDS011;26723;57.478;12.066;2023-02-28T16:18:26;2.00;;;1.90;;
40995;SDS011;26723;57.478;12.066;2023-02-28T16:21:35;1.97;;;1.87;;
40995;SDS011;26723;57.478;12.066;2023-02-28T16:24:43;1.63;;;1.53;;
40995;SDS011;26723;57.478;12.066;2023-02-28T16:27:52;1.87;;;1.77;;
40995;SDS011;26723;57.478;12.066;2023-02-28T16:31:04;1.60;;;1.50;;
40995;SDS011;26723;57.478;12.066;2023-02-28T16:34:14;1.80;;;1.70;;
40995;SDS011;26723;57.478;12.066;2023-02-28T16:37:23;1.77;;;1.67;;
40995;SDS011;26723;57.478;12.066;2023-02-28T16:40:33;2.00;;;1.80;;
40995;SDS011;26723;57.478;12.066;2023-02-28T16:43:43;1.80;;;1.70;;
40995;SDS011;26723;57.478;12.066;2023-02-28T16:46:54;2.07;;;1.70;;
40995;SDS011;26723;57.478;12.066;2023-02-28T16:50:05;1.97;;;1.87;;
40995;SDS011;26723;57.478;12.066;2023-02-28T16:53:17;3.30;;;2.00;;
40995;SDS011;26723;57.478;12.066;2023-02-28T16:56:25;2.20;;;2.03;;
40995;SDS011;26723;57.478;12.066;2023-02-28T16:59:34;2.77;;;2.03;;
40995;SDS011;26723;57.478;12.066;2023-02-28T17:02:43;1.90;;;1.80;;
40995;SDS011;26723;57.478;12.066;2023-02-28T17:06:00;1.80;;;1.70;;
40995;SDS011;26723;57.478;12.066;2023-02-28T17:09:10;3.00;;;2.00;;
40995;SDS011;26723;57.478;12.066;2023-02-28T17:12:23;1.70;;;1.60;;
40995;SDS011;26723;57.478;12.066;2023-02-28T17:15:32;2.47;;;1.70;;
40995;SDS011;26723;57.478;12.066;2023-02-28T17:18:40;1.90;;;1.80;;
40995;SDS011;26723;57.478;12.066;2023-02-28T17:21:50;1.70;;;1.60;;
40995;SDS011;26723;57.478;12.066;2023-02-28T17:24:59;2.80;;;2.20;;
40995;SDS011;26723;57.478;12.066;2023-02-28T17:28:08;2.40;;;2.20;;
40995;SDS011;26723;57.478;12.066;2023-02-28T17:31:17;2.40;;;2.20;;
40995;SDS011;26723;57.478;12.066;2023-02-28T17:34:28;1.83;;;1.70;;
40995;SDS011;26723;57.478;12.066;2023-02-28T17:37:38;2.47;;;1.90;;
40995;SDS011;26723;57.478;12.066;2023-02-28T17:40:46;2.40;;;2.10;;
40995;SDS011;26723;57.478;12.066;2023-02-28T17:43:55;4.13;;;1.90;;
40995;SDS011;26723;57.478;12.066;2023-02-28T17:47:04;2.50;;;1.80;;
40995;SDS011;26723;57.478;12.066;2023-02-28T17:50:12;1.87;;;1.77;;
40995;SDS011;26723;57.478;12.066;2023-02-28T17:53:24;1.60;;;1.50;;
40995;SDS011;26723;57.478;12.066;2023-02-28T17:56:33;3.30;;;1.70;;
40995;SDS011;26723;57.478;12.066;2023-02-28T17:59:42;2.00;;;1.90;;
40995;SDS011;26723;57.478;12.066;2023-02-28T18:02:50;3.00;;;1.90;;
40995;SDS011;26723;57.478;12.066;2023-02-28T18:05:59;2.43;;;1.50;;
40995;SDS011;26723;57.478;12.066;2023-02-28T18:09:10;1.90;;;1.80;;
40995;SDS011;26723;57.478;12.066;2023-02-28T18:12:19;2.67;;;1.97;;
40995;SDS011;26723;57.478;12.066;2023-02-28T18:15:27;2.30;;;1.73;;
40995;SDS011;26723;57.478;12.066;2023-02-28T18:18:35;2.43;;;1.93;;
40995;SDS011;26723;57.478;12.066;2023-02-28T18:21:45;2.27;;;2.07;;
40995;SDS011;26723;57.478;12.066;2023-02-28T18:24:56;1.90;;;1.80;;
40995;SDS011;26723;57.478;12.066;2023-02-28T18:28:04;1.70;;;1.60;;
40995;SDS011;26723;57.478;12.066;2023-02-28T18:31:13;3.47;;;1.50;;
40995;SDS011;26723;57.478;12.066;2023-02-28T18:34:23;3.13;;;1.50;;
40995;SDS011;26723;57.478;12.066;2023-02-28T18:37:33;2.27;;;1.70;;
40995;SDS011;26723;57.478;12.066;2023-02-28T18:40:48;2.43;;;1.60;;
40995;SDS011;26723;57.478;12.066;2023-02-28T18:43:59;1.60;;;1.50;;
40995;SDS011;26723;57.478;12.066;2023-02-28T18:47:24;1.53;;;1.43;;
40995;SDS011;26723;57.478;12.066;2023-02-28T18:50:33;1.50;;;1.43;;
40995;SDS011;26723;57.478;12.066;2023-02-28T18:53:44;1.53;;;1.43;;
40995;SDS011;26723;57.478;12.066;2023-02-28T18:56:54;2.60;;;1.53;;
40995;SDS011;26723;57.478;12.066;2023-02-28T19:00:03;1.70;;;1.60;;
40995;SDS011;26723;57.478;12.066;2023-02-28T19:03:15;1.50;;;1.40;;
40995;SDS011;26723;57.478;12.066;2023-02-28T19:06:23;1.67;;;1.43;;
40995;SDS011;26723;57.478;12.066;2023-02-28T19:09:32;1.73;;;1.63;;